sensor_id;sensor_type;location;lat;lon;timestamp;P1;durP1;ratioP1;P2;durP2;ratioP2
7031;SDS011;3557;48.880;8.328;2023-02-15T00:01:58;37.40;;;16.50;;
7031;SDS011;3557;48.880;8.328;2023-02-15T00:04:26;41.10;;;17.40;;
7031;SDS011;3557;48.880;8.328;2023-02-15T00:07:12;42.87;;;17.90;;
7031;SDS011;3557;48.880;8.328;2023-02-15T00:09:40;43.17;;;18.80;;
7031;SDS011;3557;48.880;8.328;2023-02-15T00:12:08;43.93;;;18.73;;
7031;SDS011;3557;48.880;8.328;2023-02-15T00:14:37;37.50;;;17.67;;
7031;SDS011;3557;48.880;8.328;2023-02-15T00:17:05;46.73;;;17.67;;
7031;SDS011;3557;48.880;8.328;2023-02-15T00:19:32;41.87;;;18.23;;
7031;SDS011;3557;48.880;8.328;2023-02-15T00:21:59;39.73;;;18.40;;
7031;SDS011;3557;48.880;8.328;2023-02-15T00:24:27;57.17;;;18.37;;
7031;SDS011;3557;48.880;8.328;2023-02-15T00:26:54;39.00;;;17.83;;
7031;SDS011;3557;48.880;8.328;2023-02-15T00:29:21;45.10;;;17.60;;
7031;SDS011;3557;48.880;8.328;2023-02-15T00:31:50;43.00;;;17.07;;
7031;SDS011;3557;48.880;8.328;2023-02-15T00:34:18;52.63;;;18.93;;
7031;SDS011;3557;48.880;8.328;2023-02-15T00:36:48;44.77;;;17.80;;
7031;SDS011;3557;48.880;8.328;2023-02-15T00:39:16;42.73;;;18.67;;
7031;SDS011;3557;48.880;8.328;2023-02-15T00:41:44;40.37;;;17.17;;
7031;SDS011;3557;48.880;8.328;2023-02-15T00:44:12;48.87;;;18.10;;
7031;SDS011;3557;48.880;8.328;2023-02-15T00:46:41;45.83;;;17.27;;
7031;SDS011;3557;48.880;8.328;2023-02-15T00:49:10;47.73;;;18.37;;
7031;SDS011;3557;48.880;8.328;2023-02-15T00:51:38;35.77;;;15.90;;
7031;SDS011;3557;48.880;8.328;2023-02-15T00:54:05;43.00;;;18.27;;
7031;SDS011;3557;48.880;8.328;2023-02-15T00:56:33;43.87;;;17.00;;
7031;SDS011;3557;48.880;8.328;2023-02-15T00:59:00;44.30;;;18.37;;
7031;SDS011;3557;48.880;8.328;2023-02-15T01:01:28;41.87;;;17.57;;
7031;SDS011;3557;48.880;8.328;2023-02-15T01:03:56;39.73;;;16.63;;
7031;SDS011;3557;48.880;8.328;2023-02-15T01:06:24;37.43;;;16.97;;
7031;SDS011;3557;48.880;8.328;2023-02-15T01:08:52;34.53;;;16.80;;
7031;SDS011;3557;48.880;8.328;2023-02-15T01:11:21;41.97;;;17.83;;
7031;SDS011;3557;48.880;8.328;2023-02-15T01:13:52;37.53;;;17.60;;
7031;SDS011;3557;48.880;8.328;2023-02-15T01:16:23;31.97;;;15.70;;
7031;SDS011;3557;48.880;8.328;2023-02-15T01:18:52;34.77;;;14.77;;
7031;SDS011;3557;48.880;8.328;2023-02-15T01:21:21;31.97;;;15.20;;
7031;SDS011;3557;48.880;8.328;2023-02-15T01:23:51;30.30;;;14.80;;
7031;SDS011;3557;48.880;8.328;2023-02-15T01:26:19;29.20;;;14.00;;
7031;SDS011;3557;48.880;8.328;2023-02-15T01:28:46;26.87;;;14.67;;
7031;SDS011;3557;48.880;8.328;2023-02-15T01:31:15;28.77;;;14.07;;
7031;SDS011;3557;48.880;8.328;2023-02-15T01:33:45;26.40;;;13.13;;
7031;SDS011;3557;48.880;8.328;2023-02-15T01:36:13;27.50;;;13.63;;
7031;SDS011;3557;48.880;8.328;2023-02-15T01:38:44;27.63;;;13.80;;
7031;SDS011;3557;48.880;8.328;2023-02-15T01:41:11;26.93;;;13.80;;
7031;SDS011;3557;48.880;8.328;2023-02-15T01:43:50;29.60;;;13.83;;
7031;SDS011;3557;48.880;8.328;2023-02-15T01:46:20;27.50;;;12.90;;
7031;SDS011;3557;48.880;8.328;2023-02-15T01:48:52;26.47;;;13.23;;
7031;SDS011;3557;48.880;8.328;2023-02-15T01:51:23;27.33;;;13.57;;
7031;SDS011;3557;48.880;8.328;2023-02-15T01:53:59;26.63;;;13.27;;
7031;SDS011;3557;48.880;8.328;2023-02-15T01:56:34;28.83;;;12.70;;
7031;SDS011;3557;48.880;8.328;2023-02-15T01:59:04;22.93;;;12.47;;
7031;SDS011;3557;48.880;8.328;2023-02-15T02:01:35;30.67;;;13.50;;
7031;SDS011;3557;48.880;8.328;2023-02-15T02:04:05;30.77;;;14.20;;
7031;SDS011;3557;48.880;8.328;2023-02-15T02:06:37;26.87;;;13.83;;
7031;SDS011;3557;48.880;8.328;2023-02-15T02:09:07;26.60;;;13.10;;
7031;SDS011;3557;48.880;8.328;2023-02-15T02:11:35;28.50;;;13.77;;
7031;SDS011;3557;48.880;8.328;2023-02-15T02:14:03;34.70;;;15.10;;
7031;SDS011;3557;48.880;8.328;2023-02-15T02:16:33;27.70;;;13.07;;
7031;SDS011;3557;48.880;8.328;2023-02-15T02:19:19;26.90;;;13.60;;
7031;SDS011;3557;48.880;8.328;2023-02-15T02:25:53;31.97;;;14.60;;
7031;SDS011;3557;48.880;8.328;2023-02-15T02:28:54;31.97;;;14.93;;
7031;SDS011;3557;48.880;8.328;2023-02-15T02:32:01;30.77;;;15.57;;
7031;SDS011;3557;48.880;8.328;2023-02-15T02:34:46;34.10;;;15.30;;
7031;SDS011;3557;48.880;8.328;2023-02-15T02:37:20;36.50;;;16.00;;
7031;SDS011;3557;48.880;8.328;2023-02-15T02:39:52;34.43;;;15.60;;
7031;SDS011;3557;48.880;8.328;2023-02-15T02:42:27;31.17;;;15.73;;
7031;SDS011;3557;48.880;8.328;2023-02-15T02:45:00;27.57;;;14.30;;
7031;SDS011;3557;48.880;8.328;2023-02-15T02:47:31;24.47;;;12.77;;
7031;SDS011;3557;48.880;8.328;2023-02-15T02:50:04;28.93;;;13.93;;
7031;SDS011;3557;48.880;8.328;2023-02-15T02:52:36;27.40;;;12.77;;
7031;SDS011;3557;48.880;8.328;2023-02-15T02:55:10;24.93;;;12.13;;
7031;SDS011;3557;48.880;8.328;2023-02-15T02:57:43;27.80;;;13.37;;
7031;SDS011;3557;48.880;8.328;2023-02-15T03:00:16;25.93;;;12.77;;
7031;SDS011;3557;48.880;8.328;2023-02-15T03:02:45;26.70;;;13.63;;
7031;SDS011;3557;48.880;8.328;2023-02-15T03:05:16;30.13;;;13.70;;
7031;SDS011;3557;48.880;8.328;2023-02-15T03:07:48;27.43;;;13.23;;
7031;SDS011;3557;48.880;8.328;2023-02-15T03:10:17;26.83;;;13.00;;
7031;SDS011;3557;48.880;8.328;2023-02-15T03:12:49;28.60;;;13.83;;
7031;SDS011;3557;48.880;8.328;2023-02-15T03:15:18;25.93;;;13.23;;
7031;SDS011;3557;48.880;8.328;2023-02-15T03:18:15;24.03;;;12.50;;
7031;SDS011;3557;48.880;8.328;2023-02-15T03:20:45;26.03;;;12.77;;
7031;SDS011;3557;48.880;8.328;2023-02-15T03:23:14;26.03;;;12.20;;
7031;SDS011;3557;48.880;8.328;2023-02-15T03:25:46;29.37;;;13.97;;
7031;SDS011;3557;48.880;8.328;2023-02-15T03:28:20;29.13;;;13.87;;
7031;SDS011;3557;48.880;8.328;2023-02-15T03:30:52;30.73;;;13.07;;
7031;SDS011;3557;48.880;8.328;2023-02-15T03:33:22;23.13;;;12.70;;
7031;SDS011;3557;48.880;8.328;2023-02-15T03:35:53;26.17;;;13.97;;
7031;SDS011;3557;48.880;8.328;2023-02-15T03:38:25;30.10;;;13.87;;
7031;SDS011;3557;48.880;8.328;2023-02-15T03:40:57;31.03;;;14.10;;
7031;SDS011;3557;48.880;8.328;2023-02-15T03:43:37;34.07;;;13.90;;
7031;SDS011;3557;48.880;8.328;2023-02-15T03:46:12;35.87;;;14.93;;
7031;SDS011;3557;48.880;8.328;2023-02-15T03:48:44;29.43;;;13.40;;
7031;SDS011;3557;48.880;8.328;2023-02-15T03:51:18;27.57;;;14.00;;
7031;SDS011;3557;48.880;8.328;2023-02-15T03:54:00;22.37;;;11.60;;
7031;SDS011;3557;48.880;8.328;2023-02-15T03:56:31;21.87;;;11.50;;
7031;SDS011;3557;48.880;8.328;2023-02-15T03:59:01;22.37;;;11.80;;
7031;SDS011;3557;48.880;8.328;2023-02-15T04:01:53;26.17;;;11.70;;
7031;SDS011;3557;48.880;8.328;2023-02-15T04:04:32;22.00;;;11.03;;
7031;SDS011;3557;48.880;8.328;2023-02-15T04:07:03;27.30;;;12.20;;
7031;SDS011;3557;48.880;8.328;2023-02-15T04:09:34;26.17;;;11.97;;
7031;SDS011;3557;48.880;8.328;2023-02-15T04:12:19;24.17;;;11.40;;
7031;SDS011;3557;48.880;8.328;2023-02-15T04:14:47;27.53;;;11.83;;
7031;SDS011;3557;48.880;8.328;2023-02-15T04:17:32;23.03;;;11.47;;
7031;SDS011;3557;48.880;8.328;2023-02-15T04:19:59;25.53;;;11.70;;
7031;SDS011;3557;48.880;8.328;2023-02-15T04:22:45;21.27;;;10.47;;
7031;SDS011;3557;48.880;8.328;2023-02-15T04:25:31;26.37;;;11.23;;
7031;SDS011;3557;48.880;8.328;2023-02-15T04:27:58;23.47;;;11.50;;
7031;SDS011;3557;48.880;8.328;2023-02-15T04:30:25;21.47;;;11.30;;
7031;SDS011;3557;48.880;8.328;2023-02-15T04:32:53;22.83;;;11.40;;
7031;SDS011;3557;48.880;8.328;2023-02-15T04:35:22;25.00;;;11.73;;
7031;SDS011;3557;48.880;8.328;2023-02-15T04:37:50;25.47;;;12.27;;
7031;SDS011;3557;48.880;8.328;2023-02-15T04:40:18;25.70;;;11.40;;
7031;SDS011;3557;48.880;8.328;2023-02-15T04:42:46;27.33;;;12.50;;
7031;SDS011;3557;48.880;8.328;2023-02-15T04:45:15;26.03;;;11.87;;
7031;SDS011;3557;48.880;8.328;2023-02-15T04:47:42;27.47;;;12.23;;
7031;SDS011;3557;48.880;8.328;2023-02-15T04:50:10;26.53;;;12.10;;
7031;SDS011;3557;48.880;8.328;2023-02-15T04:52:37;21.73;;;11.00;;
7031;SDS011;3557;48.880;8.328;2023-02-15T04:55:06;21.67;;;10.57;;
7031;SDS011;3557;48.880;8.328;2023-02-15T04:57:34;16.43;;;9.57;;
7031;SDS011;3557;48.880;8.328;2023-02-15T05:00:01;19.43;;;9.47;;
7031;SDS011;3557;48.880;8.328;2023-02-15T05:02:29;18.90;;;9.83;;
7031;SDS011;3557;48.880;8.328;2023-02-15T05:04:57;18.03;;;9.30;;
7031;SDS011;3557;48.880;8.328;2023-02-15T05:07:24;21.60;;;9.17;;
7031;SDS011;3557;48.880;8.328;2023-02-15T05:09:51;17.97;;;9.23;;
7031;SDS011;3557;48.880;8.328;2023-02-15T05:12:20;14.43;;;8.93;;
7031;SDS011;3557;48.880;8.328;2023-02-15T05:14:48;16.27;;;8.87;;
7031;SDS011;3557;48.880;8.328;2023-02-15T05:17:15;17.93;;;9.27;;
7031;SDS011;3557;48.880;8.328;2023-02-15T05:19:42;17.80;;;8.93;;
7031;SDS011;3557;48.880;8.328;2023-02-15T05:22:09;17.57;;;9.03;;
7031;SDS011;3557;48.880;8.328;2023-02-15T05:24:37;17.67;;;9.13;;
7031;SDS011;3557;48.880;8.328;2023-02-15T05:27:23;16.93;;;8.97;;
7031;SDS011;3557;48.880;8.328;2023-02-15T05:30:08;18.17;;;8.83;;
7031;SDS011;3557;48.880;8.328;2023-02-15T05:32:37;17.87;;;9.30;;
7031;SDS011;3557;48.880;8.328;2023-02-15T05:35:05;18.87;;;9.77;;
7031;SDS011;3557;48.880;8.328;2023-02-15T05:37:33;18.53;;;9.53;;
7031;SDS011;3557;48.880;8.328;2023-02-15T05:40:00;19.20;;;10.03;;
7031;SDS011;3557;48.880;8.328;2023-02-15T05:42:29;19.03;;;9.90;;
7031;SDS011;3557;48.880;8.328;2023-02-15T05:44:56;17.33;;;9.20;;
7031;SDS011;3557;48.880;8.328;2023-02-15T05:47:24;17.77;;;9.40;;
7031;SDS011;3557;48.880;8.328;2023-02-15T05:49:51;19.47;;;9.73;;
7031;SDS011;3557;48.880;8.328;2023-02-15T05:52:18;18.90;;;9.13;;
7031;SDS011;3557;48.880;8.328;2023-02-15T05:54:46;17.07;;;9.13;;
7031;SDS011;3557;48.880;8.328;2023-02-15T05:57:14;18.10;;;9.43;;
7031;SDS011;3557;48.880;8.328;2023-02-15T05:59:42;16.47;;;8.80;;
7031;SDS011;3557;48.880;8.328;2023-02-15T06:02:10;14.33;;;8.17;;
7031;SDS011;3557;48.880;8.328;2023-02-15T06:04:38;18.37;;;9.60;;
7031;SDS011;3557;48.880;8.328;2023-02-15T06:07:05;18.50;;;9.03;;
7031;SDS011;3557;48.880;8.328;2023-02-15T06:09:32;15.30;;;8.37;;
7031;SDS011;3557;48.880;8.328;2023-02-15T06:12:00;14.00;;;7.97;;
7031;SDS011;3557;48.880;8.328;2023-02-15T06:14:27;14.33;;;7.73;;
7031;SDS011;3557;48.880;8.328;2023-02-15T06:16:56;15.50;;;7.90;;
7031;SDS011;3557;48.880;8.328;2023-02-15T06:19:23;18.10;;;8.43;;
7031;SDS011;3557;48.880;8.328;2023-02-15T06:21:50;19.17;;;8.80;;
7031;SDS011;3557;48.880;8.328;2023-02-15T06:24:18;17.80;;;8.70;;
7031;SDS011;3557;48.880;8.328;2023-02-15T06:26:45;18.27;;;8.80;;
7031;SDS011;3557;48.880;8.328;2023-02-15T06:29:12;15.93;;;8.87;;
7031;SDS011;3557;48.880;8.328;2023-02-15T06:31:40;15.40;;;8.40;;
7031;SDS011;3557;48.880;8.328;2023-02-15T06:34:08;16.37;;;8.43;;
7031;SDS011;3557;48.880;8.328;2023-02-15T06:36:36;19.33;;;8.23;;
7031;SDS011;3557;48.880;8.328;2023-02-15T06:39:03;16.83;;;8.67;;
7031;SDS011;3557;48.880;8.328;2023-02-15T06:41:31;17.73;;;9.23;;
7031;SDS011;3557;48.880;8.328;2023-02-15T06:43:58;15.67;;;8.90;;
7031;SDS011;3557;48.880;8.328;2023-02-15T06:46:25;17.73;;;9.70;;
7031;SDS011;3557;48.880;8.328;2023-02-15T06:48:54;16.20;;;8.23;;
7031;SDS011;3557;48.880;8.328;2023-02-15T06:51:22;16.23;;;8.60;;
7031;SDS011;3557;48.880;8.328;2023-02-15T06:53:50;25.43;;;9.37;;
7031;SDS011;3557;48.880;8.328;2023-02-15T06:56:17;17.87;;;9.23;;
7031;SDS011;3557;48.880;8.328;2023-02-15T06:58:44;14.63;;;8.53;;
7031;SDS011;3557;48.880;8.328;2023-02-15T07:01:14;13.30;;;7.63;;
7031;SDS011;3557;48.880;8.328;2023-02-15T07:03:41;16.77;;;9.00;;
7031;SDS011;3557;48.880;8.328;2023-02-15T07:06:09;21.70;;;9.30;;
7031;SDS011;3557;48.880;8.328;2023-02-15T07:08:38;25.80;;;9.43;;
7031;SDS011;3557;48.880;8.328;2023-02-15T07:11:06;22.60;;;10.07;;
7031;SDS011;3557;48.880;8.328;2023-02-15T07:13:51;15.67;;;8.03;;
7031;SDS011;3557;48.880;8.328;2023-02-15T07:16:18;16.07;;;8.90;;
7031;SDS011;3557;48.880;8.328;2023-02-15T07:18:46;17.77;;;8.40;;
7031;SDS011;3557;48.880;8.328;2023-02-15T07:21:14;23.60;;;9.83;;
7031;SDS011;3557;48.880;8.328;2023-02-15T07:23:42;22.63;;;10.40;;
7031;SDS011;3557;48.880;8.328;2023-02-15T07:26:10;19.10;;;10.07;;
7031;SDS011;3557;48.880;8.328;2023-02-15T07:28:37;21.77;;;9.73;;
7031;SDS011;3557;48.880;8.328;2023-02-15T07:31:05;19.30;;;10.10;;
7031;SDS011;3557;48.880;8.328;2023-02-15T07:33:33;18.47;;;9.93;;
7031;SDS011;3557;48.880;8.328;2023-02-15T07:36:01;17.50;;;9.67;;
7031;SDS011;3557;48.880;8.328;2023-02-15T07:38:31;22.30;;;10.37;;
7031;SDS011;3557;48.880;8.328;2023-02-15T07:41:01;21.67;;;10.93;;
7031;SDS011;3557;48.880;8.328;2023-02-15T07:43:32;22.37;;;10.27;;
7031;SDS011;3557;48.880;8.328;2023-02-15T07:46:01;23.57;;;12.30;;
7031;SDS011;3557;48.880;8.328;2023-02-15T07:48:29;17.27;;;9.63;;
7031;SDS011;3557;48.880;8.328;2023-02-15T07:50:58;13.47;;;8.67;;
7031;SDS011;3557;48.880;8.328;2023-02-15T07:53:25;23.67;;;10.47;;
7031;SDS011;3557;48.880;8.328;2023-02-15T07:55:53;33.90;;;10.23;;
7031;SDS011;3557;48.880;8.328;2023-02-15T07:58:22;20.03;;;9.90;;
7031;SDS011;3557;48.880;8.328;2023-02-15T08:01:10;20.37;;;9.40;;
7031;SDS011;3557;48.880;8.328;2023-02-15T08:03:37;19.07;;;10.43;;
7031;SDS011;3557;48.880;8.328;2023-02-15T08:06:04;18.60;;;9.80;;
7031;SDS011;3557;48.880;8.328;2023-02-15T08:08:33;19.63;;;10.70;;
7031;SDS011;3557;48.880;8.328;2023-02-15T08:11:01;19.13;;;9.67;;
7031;SDS011;3557;48.880;8.328;2023-02-15T08:13:49;18.57;;;10.20;;
7031;SDS011;3557;48.880;8.328;2023-02-15T08:16:24;18.73;;;10.00;;
7031;SDS011;3557;48.880;8.328;2023-02-15T08:18:53;21.30;;;9.70;;
7031;SDS011;3557;48.880;8.328;2023-02-15T08:21:21;19.43;;;9.97;;
7031;SDS011;3557;48.880;8.328;2023-02-15T08:23:50;16.03;;;8.60;;
7031;SDS011;3557;48.880;8.328;2023-02-15T08:26:18;18.43;;;9.37;;
7031;SDS011;3557;48.880;8.328;2023-02-15T08:28:45;19.33;;;10.93;;
7031;SDS011;3557;48.880;8.328;2023-02-15T08:31:15;17.77;;;9.87;;
7031;SDS011;3557;48.880;8.328;2023-02-15T08:33:43;16.47;;;9.13;;
7031;SDS011;3557;48.880;8.328;2023-02-15T08:36:13;16.13;;;9.23;;
7031;SDS011;3557;48.880;8.328;2023-02-15T08:38:42;21.70;;;9.97;;
7031;SDS011;3557;48.880;8.328;2023-02-15T08:41:11;18.77;;;9.67;;
7031;SDS011;3557;48.880;8.328;2023-02-15T08:43:40;16.37;;;8.70;;
7031;SDS011;3557;48.880;8.328;2023-02-15T08:46:08;17.50;;;9.60;;
7031;SDS011;3557;48.880;8.328;2023-02-15T08:48:38;16.93;;;9.80;;
7031;SDS011;3557;48.880;8.328;2023-02-15T08:51:07;15.60;;;9.20;;
7031;SDS011;3557;48.880;8.328;2023-02-15T08:53:37;13.93;;;7.93;;
7031;SDS011;3557;48.880;8.328;2023-02-15T08:56:05;13.33;;;8.03;;
7031;SDS011;3557;48.880;8.328;2023-02-15T08:58:34;13.87;;;8.47;;
7031;SDS011;3557;48.880;8.328;2023-02-15T09:01:07;12.97;;;8.13;;
7031;SDS011;3557;48.880;8.328;2023-02-15T09:03:36;12.63;;;7.30;;
7031;SDS011;3557;48.880;8.328;2023-02-15T09:06:05;14.37;;;7.60;;
7031;SDS011;3557;48.880;8.328;2023-02-15T09:08:33;11.17;;;7.40;;
7031;SDS011;3557;48.880;8.328;2023-02-15T09:11:04;15.97;;;8.43;;
7031;SDS011;3557;48.880;8.328;2023-02-15T09:13:34;14.80;;;8.33;;
7031;SDS011;3557;48.880;8.328;2023-02-15T09:16:02;12.07;;;7.37;;
7031;SDS011;3557;48.880;8.328;2023-02-15T09:18:31;12.73;;;7.83;;
7031;SDS011;3557;48.880;8.328;2023-02-15T09:21:07;12.33;;;7.60;;
7031;SDS011;3557;48.880;8.328;2023-02-15T09:23:38;13.87;;;7.63;;
7031;SDS011;3557;48.880;8.328;2023-02-15T09:26:07;10.27;;;7.03;;
7031;SDS011;3557;48.880;8.328;2023-02-15T09:28:36;12.60;;;7.43;;
7031;SDS011;3557;48.880;8.328;2023-02-15T09:31:04;12.23;;;7.93;;
7031;SDS011;3557;48.880;8.328;2023-02-15T09:33:34;14.17;;;8.00;;
7031;SDS011;3557;48.880;8.328;2023-02-15T09:36:03;12.73;;;7.77;;
7031;SDS011;3557;48.880;8.328;2023-02-15T09:38:33;11.23;;;7.50;;
7031;SDS011;3557;48.880;8.328;2023-02-15T09:41:06;13.10;;;8.40;;
7031;SDS011;3557;48.880;8.328;2023-02-15T09:43:54;13.30;;;7.57;;
7031;SDS011;3557;48.880;8.328;2023-02-15T09:46:34;11.57;;;7.43;;
7031;SDS011;3557;48.880;8.328;2023-02-15T09:49:21;11.13;;;7.40;;
7031;SDS011;3557;48.880;8.328;2023-02-15T09:52:00;14.07;;;7.63;;
7031;SDS011;3557;48.880;8.328;2023-02-15T09:54:45;11.20;;;7.47;;
7031;SDS011;3557;48.880;8.328;2023-02-15T09:57:23;10.53;;;7.30;;
7031;SDS011;3557;48.880;8.328;2023-02-15T10:00:00;9.83;;;7.10;;
7031;SDS011;3557;48.880;8.328;2023-02-15T10:02:44;10.87;;;6.97;;
7031;SDS011;3557;48.880;8.328;2023-02-15T10:05:30;10.63;;;7.40;;
7031;SDS011;3557;48.880;8.328;2023-02-15T10:08:27;10.87;;;7.13;;
7031;SDS011;3557;48.880;8.328;2023-02-15T10:11:09;12.50;;;7.47;;
7031;SDS011;3557;48.880;8.328;2023-02-15T10:14:02;10.07;;;6.60;;
7031;SDS011;3557;48.880;8.328;2023-02-15T10:17:07;12.83;;;7.77;;
7031;SDS011;3557;48.880;8.328;2023-02-15T10:19:44;14.90;;;8.27;;
7031;SDS011;3557;48.880;8.328;2023-02-15T10:22:25;13.53;;;8.63;;
7031;SDS011;3557;48.880;8.328;2023-02-15T10:25:07;13.77;;;8.73;;
7031;SDS011;3557;48.880;8.328;2023-02-15T10:27:48;11.83;;;8.10;;
7031;SDS011;3557;48.880;8.328;2023-02-15T10:30:16;13.43;;;9.00;;
7031;SDS011;3557;48.880;8.328;2023-02-15T10:32:53;11.50;;;8.00;;
7031;SDS011;3557;48.880;8.328;2023-02-15T10:35:29;17.90;;;10.60;;
7031;SDS011;3557;48.880;8.328;2023-02-15T10:38:05;14.90;;;9.87;;
7031;SDS011;3557;48.880;8.328;2023-02-15T10:40:46;12.03;;;7.97;;
7031;SDS011;3557;48.880;8.328;2023-02-15T10:43:33;12.50;;;8.10;;
7031;SDS011;3557;48.880;8.328;2023-02-15T10:46:16;14.70;;;8.87;;
7031;SDS011;3557;48.880;8.328;2023-02-15T10:48:55;12.67;;;8.80;;
7031;SDS011;3557;48.880;8.328;2023-02-15T10:51:40;13.23;;;8.37;;
7031;SDS011;3557;48.880;8.328;2023-02-15T10:54:19;13.13;;;8.63;;
7031;SDS011;3557;48.880;8.328;2023-02-15T10:56:53;12.90;;;8.60;;
7031;SDS011;3557;48.880;8.328;2023-02-15T10:59:37;13.20;;;8.37;;
7031;SDS011;3557;48.880;8.328;2023-02-15T11:02:20;13.53;;;8.27;;
7031;SDS011;3557;48.880;8.328;2023-02-15T11:05:00;13.20;;;8.30;;
7031;SDS011;3557;48.880;8.328;2023-02-15T11:07:35;14.37;;;8.70;;
7031;SDS011;3557;48.880;8.328;2023-02-15T11:10:11;12.60;;;8.30;;
7031;SDS011;3557;48.880;8.328;2023-02-15T11:12:49;13.73;;;8.57;;
7031;SDS011;3557;48.880;8.328;2023-02-15T11:15:19;12.60;;;8.10;;
7031;SDS011;3557;48.880;8.328;2023-02-15T11:17:56;15.17;;;9.10;;
7031;SDS011;3557;48.880;8.328;2023-02-15T11:20:28;13.63;;;8.60;;
7031;SDS011;3557;48.880;8.328;2023-02-15T11:22:58;13.93;;;8.50;;
7031;SDS011;3557;48.880;8.328;2023-02-15T11:25:28;15.43;;;9.47;;
7031;SDS011;3557;48.880;8.328;2023-02-15T11:27:57;12.33;;;8.50;;
7031;SDS011;3557;48.880;8.328;2023-02-15T11:30:27;13.97;;;8.83;;
7031;SDS011;3557;48.880;8.328;2023-02-15T11:33:12;13.77;;;8.90;;
7031;SDS011;3557;48.880;8.328;2023-02-15T11:35:47;14.33;;;8.87;;
7031;SDS011;3557;48.880;8.328;2023-02-15T11:38:18;15.90;;;9.43;;
7031;SDS011;3557;48.880;8.328;2023-02-15T11:40:48;14.47;;;8.87;;
7031;SDS011;3557;48.880;8.328;2023-02-15T11:43:17;16.07;;;9.83;;
7031;SDS011;3557;48.880;8.328;2023-02-15T11:45:51;24.13;;;17.17;;
7031;SDS011;3557;48.880;8.328;2023-02-15T11:48:19;15.27;;;10.10;;
7031;SDS011;3557;48.880;8.328;2023-02-15T11:50:47;14.53;;;9.50;;
7031;SDS011;3557;48.880;8.328;2023-02-15T11:53:15;14.40;;;8.90;;
7031;SDS011;3557;48.880;8.328;2023-02-15T11:55:44;16.53;;;9.63;;
7031;SDS011;3557;48.880;8.328;2023-02-15T11:58:16;13.87;;;8.83;;
7031;SDS011;3557;48.880;8.328;2023-02-15T12:00:56;13.27;;;9.20;;
7031;SDS011;3557;48.880;8.328;2023-02-15T12:03:28;12.80;;;9.00;;
7031;SDS011;3557;48.880;8.328;2023-02-15T12:06:05;15.00;;;9.20;;
7031;SDS011;3557;48.880;8.328;2023-02-15T12:08:48;13.43;;;9.17;;
7031;SDS011;3557;48.880;8.328;2023-02-15T12:11:29;13.73;;;9.17;;
7031;SDS011;3557;48.880;8.328;2023-02-15T12:14:01;14.87;;;9.60;;
7031;SDS011;3557;48.880;8.328;2023-02-15T12:16:33;16.13;;;9.67;;
7031;SDS011;3557;48.880;8.328;2023-02-15T12:19:12;13.37;;;9.00;;
7031;SDS011;3557;48.880;8.328;2023-02-15T12:21:57;13.80;;;9.90;;
7031;SDS011;3557;48.880;8.328;2023-02-15T12:24:26;13.40;;;9.93;;
7031;SDS011;3557;48.880;8.328;2023-02-15T12:26:56;27.93;;;16.37;;
7031;SDS011;3557;48.880;8.328;2023-02-15T12:29:28;16.27;;;10.27;;
7031;SDS011;3557;48.880;8.328;2023-02-15T12:32:02;22.97;;;14.13;;
7031;SDS011;3557;48.880;8.328;2023-02-15T12:34:31;20.77;;;13.33;;
7031;SDS011;3557;48.880;8.328;2023-02-15T12:37:07;23.83;;;13.23;;
7031;SDS011;3557;48.880;8.328;2023-02-15T12:39:50;13.87;;;9.80;;
7031;SDS011;3557;48.880;8.328;2023-02-15T12:42:21;13.93;;;9.40;;
7031;SDS011;3557;48.880;8.328;2023-02-15T12:44:53;12.70;;;8.93;;
7031;SDS011;3557;48.880;8.328;2023-02-15T12:47:24;14.70;;;9.03;;
7031;SDS011;3557;48.880;8.328;2023-02-15T12:53:05;15.30;;;10.23;;
7031;SDS011;3557;48.880;8.328;2023-02-15T12:55:36;18.33;;;10.50;;
7031;SDS011;3557;48.880;8.328;2023-02-15T12:58:08;17.37;;;10.27;;
7031;SDS011;3557;48.880;8.328;2023-02-15T13:00:42;16.83;;;10.47;;
7031;SDS011;3557;48.880;8.328;2023-02-15T13:03:16;16.00;;;10.30;;
7031;SDS011;3557;48.880;8.328;2023-02-15T13:05:47;15.87;;;10.40;;
7031;SDS011;3557;48.880;8.328;2023-02-15T13:08:19;16.20;;;10.77;;
7031;SDS011;3557;48.880;8.328;2023-02-15T13:10:54;19.33;;;12.10;;
7031;SDS011;3557;48.880;8.328;2023-02-15T13:13:24;18.30;;;11.47;;
7031;SDS011;3557;48.880;8.328;2023-02-15T13:15:55;19.37;;;11.63;;
7031;SDS011;3557;48.880;8.328;2023-02-15T13:18:28;18.83;;;12.00;;
7031;SDS011;3557;48.880;8.328;2023-02-15T13:20:59;18.57;;;12.00;;
7031;SDS011;3557;48.880;8.328;2023-02-15T13:23:32;18.27;;;11.10;;
7031;SDS011;3557;48.880;8.328;2023-02-15T13:26:03;16.20;;;11.00;;
7031;SDS011;3557;48.880;8.328;2023-02-15T13:28:36;15.93;;;10.70;;
7031;SDS011;3557;48.880;8.328;2023-02-15T13:31:11;15.47;;;10.27;;
7031;SDS011;3557;48.880;8.328;2023-02-15T13:33:42;15.97;;;10.40;;
7031;SDS011;3557;48.880;8.328;2023-02-15T13:36:13;15.77;;;10.70;;
7031;SDS011;3557;48.880;8.328;2023-02-15T13:38:46;14.17;;;9.60;;
7031;SDS011;3557;48.880;8.328;2023-02-15T13:41:25;14.00;;;9.43;;
7031;SDS011;3557;48.880;8.328;2023-02-15T13:43:59;15.10;;;10.07;;
7031;SDS011;3557;48.880;8.328;2023-02-15T13:46:40;14.80;;;10.50;;
7031;SDS011;3557;48.880;8.328;2023-02-15T13:49:24;14.80;;;10.33;;
7031;SDS011;3557;48.880;8.328;2023-02-15T13:52:05;14.73;;;10.30;;
7031;SDS011;3557;48.880;8.328;2023-02-15T13:54:46;13.93;;;9.57;;
7031;SDS011;3557;48.880;8.328;2023-02-15T13:57:28;15.63;;;10.50;;
7031;SDS011;3557;48.880;8.328;2023-02-15T14:00:19;15.53;;;10.17;;
7031;SDS011;3557;48.880;8.328;2023-02-15T14:02:53;17.40;;;10.77;;
7031;SDS011;3557;48.880;8.328;2023-02-15T14:05:50;15.57;;;9.80;;
7031;SDS011;3557;48.880;8.328;2023-02-15T14:08:32;17.27;;;10.97;;
7031;SDS011;3557;48.880;8.328;2023-02-15T14:11:12;73.73;;;41.57;;
7031;SDS011;3557;48.880;8.328;2023-02-15T14:16:54;17.73;;;11.83;;
7031;SDS011;3557;48.880;8.328;2023-02-15T14:19:28;16.53;;;10.30;;
7031;SDS011;3557;48.880;8.328;2023-02-15T14:22:05;16.83;;;11.33;;
7031;SDS011;3557;48.880;8.328;2023-02-15T14:24:41;17.63;;;10.77;;
7031;SDS011;3557;48.880;8.328;2023-02-15T14:27:17;15.63;;;11.20;;
7031;SDS011;3557;48.880;8.328;2023-02-15T14:29:51;19.10;;;11.20;;
7031;SDS011;3557;48.880;8.328;2023-02-15T14:32:24;17.87;;;11.73;;
7031;SDS011;3557;48.880;8.328;2023-02-15T14:34:57;17.07;;;11.37;;
7031;SDS011;3557;48.880;8.328;2023-02-15T14:37:31;17.30;;;11.30;;
7031;SDS011;3557;48.880;8.328;2023-02-15T14:40:06;18.37;;;11.87;;
7031;SDS011;3557;48.880;8.328;2023-02-15T14:43:05;18.60;;;11.90;;
7031;SDS011;3557;48.880;8.328;2023-02-15T14:45:38;20.17;;;12.00;;
7031;SDS011;3557;48.880;8.328;2023-02-15T14:48:10;20.20;;;12.03;;
7031;SDS011;3557;48.880;8.328;2023-02-15T14:50:42;17.77;;;12.47;;
7031;SDS011;3557;48.880;8.328;2023-02-15T14:53:16;20.30;;;12.60;;
7031;SDS011;3557;48.880;8.328;2023-02-15T14:56:20;17.60;;;11.20;;
7031;SDS011;3557;48.880;8.328;2023-02-15T14:58:56;20.27;;;12.80;;
7031;SDS011;3557;48.880;8.328;2023-02-15T15:01:27;17.47;;;11.77;;
7031;SDS011;3557;48.880;8.328;2023-02-15T15:03:57;18.37;;;12.37;;
7031;SDS011;3557;48.880;8.328;2023-02-15T15:06:29;16.70;;;11.07;;
7031;SDS011;3557;48.880;8.328;2023-02-15T15:09:00;16.50;;;10.50;;
7031;SDS011;3557;48.880;8.328;2023-02-15T15:11:42;16.03;;;11.10;;
7031;SDS011;3557;48.880;8.328;2023-02-15T15:17:05;18.03;;;11.10;;
7031;SDS011;3557;48.880;8.328;2023-02-15T15:22:39;17.07;;;11.07;;
7031;SDS011;3557;48.880;8.328;2023-02-15T15:25:10;15.87;;;11.23;;
7031;SDS011;3557;48.880;8.328;2023-02-15T15:27:54;15.83;;;10.23;;
7031;SDS011;3557;48.880;8.328;2023-02-15T15:36:35;17.03;;;10.47;;
7031;SDS011;3557;48.880;8.328;2023-02-15T15:43:11;16.77;;;10.97;;
7031;SDS011;3557;48.880;8.328;2023-02-15T15:46:02;16.83;;;11.37;;
7031;SDS011;3557;48.880;8.328;2023-02-15T15:48:45;18.33;;;11.23;;
7031;SDS011;3557;48.880;8.328;2023-02-15T15:51:13;19.93;;;12.07;;
7031;SDS011;3557;48.880;8.328;2023-02-15T15:53:47;18.73;;;12.10;;